Weather at Strittmatter Airport [CLOSED]

Public forecast

Using degrees Fahrenheit for public forecast. Weather courtesy of forecast.io.

Closest aviation weather report (METAR) to Strittmatter Airport

Closest report is John Murtha Johnstown Cambria County Airport, 15.3 nm (28.2 km) SSW. Retrieved 2020/12/04 23:16 UTC (0 seconds ago):

KJST 042316Z AUTO 00000KT 1/2SM -RA FG BKN010 OVC020 03/01 A2987 RMK AO2 P0001 T00280011

Closest aviation forecast (TAF) to Strittmatter Airport

Closest forecast is John Murtha Johnstown Cambria County Airport, 15.3 nm (28.2 km) SSW. Retrieved 2020/12/04 18:36 UTC (5 hours ago):

TAF KJST 041734Z 0418/0518 22012KT P6SM OVC040 FM042000 23009KT 4SM BR OVC020 FM042300 23005KT 1 1/2SM -RA BR OVC010 FM050500 30005KT 3SM BR OVC007 PROB30 0505/0509 4SM -RA OVC003 FM051000 31011G17KT 3SM -SHSN OVC007 FM051400 31015G22KT 6SM -SHSN OVC015